Megalochari Vii — SY6064 — position and weather

sailwx.info

Track history (hours):
 
Tides and Currents Weather Stations Pressure Air Temp Water Temp Dewpoint Dewpoint Depression Visibility Wind Speed Wind Dir Waves Ship Positions

Megalochari Vii

Last reported at 2015-Jan-31 04:33 UTC. Time now 2015-Jan-31 05:32 UTC.
Position N 37°58' E 023°37'.

Length 27 m; draft 4.8 m.

Type: Tug. MMSI: 240391000.

Date/timePositionNaut miles runAvg speedWind from/ knotsBaromVisibWave heightAir tempDewpointWater temp
2015-Jan-31 04:33N 37°58' E 023°37'0 0.0
2015-Jan-31 03:33N 37°58' E 023°37'0 0.0
2015-Jan-31 02:33N 37°58' E 023°37'0 0.0
2015-Jan-31 01:33N 37°58' E 023°37'0 0.0
2015-Jan-31 00:33N 37°58' E 023°37'0 0.0
2015-Jan-30 23:33N 37°58' E 023°37'0 0.0
2015-Jan-30 22:33N 37°58' E 023°37'0 0.0
2015-Jan-30 21:33N 37°58' E 023°37'0 0.0
2015-Jan-30 20:33N 37°58' E 023°37'0 0.0
2015-Jan-30 19:33N 37°58' E 023°37'0 0.0
2015-Jan-30 18:33N 37°58' E 023°37'0 0.0
2015-Jan-30 17:33N 37°58' E 023°37'0 0.0
2015-Jan-30 16:33N 37°58' E 023°37'0 0.0
2015-Jan-30 15:33N 37°58' E 023°37'0 0.0
2015-Jan-30 14:33N 37°58' E 023°37'0 0.0
2015-Jan-30 13:33N 37°58' E 023°37'0 0.0
2015-Jan-30 12:33N 37°58' E 023°37'1 0.7
2015-Jan-30 11:33N 37°57' E 023°36'1 0.7
2015-Jan-30 10:33N 37°58' E 023°37'0 0.0
2015-Jan-30 09:33N 37°58' E 023°37'2 2.5
2015-Jan-30 08:34N 37°57' E 023°34'2 1.8
2015-Jan-30 07:33N 37°57' E 023°36'0 0.3
2015-Jan-30 06:33N 37°57' E 023°36'1 1.1
2015-Jan-30 05:33N 37°58' E 023°37'0 0.0
2015-Jan-30 04:33N 37°58' E 023°37'0 0.0
2015-Jan-30 03:33N 37°58' E 023°37'0 0.0
2015-Jan-30 02:33N 37°58' E 023°37'0 0.0
2015-Jan-30 01:33N 37°58' E 023°37'0 0.0
2015-Jan-30 00:33N 37°58' E 023°37'0 0.0
2015-Jan-29 23:33N 37°58' E 023°37'0 0.0
2015-Jan-29 22:33N 37°58' E 023°37'0 0.0
2015-Jan-29 21:33N 37°58' E 023°37'0 0.0
2015-Jan-29 20:33N 37°58' E 023°37'0 0.0
2015-Jan-29 19:33N 37°58' E 023°37'0 0.0
2015-Jan-29 18:33N 37°58' E 023°37'0 0.0
2015-Jan-29 17:33N 37°58' E 023°37'0 0.0
2015-Jan-29 16:33N 37°58' E 023°37'0 0.0
2015-Jan-29 15:33N 37°58' E 023°37'0 0.0
2015-Jan-29 14:33N 37°58' E 023°37'0 0.0
2015-Jan-29 13:33N 37°58' E 023°37'0 0.0
2015-Jan-29 12:33N 37°58' E 023°37'0 0.0
2015-Jan-29 11:33N 37°58' E 023°37'0 0.0
2015-Jan-29 10:33N 37°58' E 023°37'0 0.0
2015-Jan-29 09:33N 37°58' E 023°37'0 0.0
2015-Jan-29 08:33N 37°58' E 023°37'0 0.0
2015-Jan-29 07:25N 37°58' E 023°37'0 0.0
2015-Jan-29 06:33N 37°58' E 023°37'1 1.0
2015-Jan-29 05:33N 37°57' E 023°36'1 1.0
2015-Jan-29 04:33N 37°58' E 023°37'0 0.0
2015-Jan-29 03:33N 37°58' E 023°37'0 0.0
2015-Jan-29 02:33N 37°58' E 023°37'0 0.0
2015-Jan-29 01:33N 37°58' E 023°37'0 0.0
2015-Jan-29 00:33N 37°58' E 023°37'0 0.0
2015-Jan-28 23:33N 37°58' E 023°37'0 0.0
2015-Jan-28 22:33N 37°58' E 023°37'0 0.0
2015-Jan-28 21:33N 37°58' E 023°37'0 0.0
2015-Jan-28 20:33N 37°58' E 023°37'0 0.0
2015-Jan-28 19:33N 37°58' E 023°37'0 0.0
2015-Jan-28 18:33N 37°58' E 023°37'0 0.0
2015-Jan-28 17:33N 37°58' E 023°37'0 0.0
2015-Jan-28 16:33N 37°58' E 023°37'0 0.0
2015-Jan-28 15:33N 37°58' E 023°37'0 0.0
2015-Jan-28 14:33N 37°58' E 023°37'0 0.0
2015-Jan-28 13:33N 37°58' E 023°37'0 0.0
2015-Jan-28 12:33N 37°58' E 023°37'0 0.0
2015-Jan-28 11:33N 37°58' E 023°37'0 0.0
2015-Jan-28 10:33N 37°58' E 023°37'0 0.0
2015-Jan-28 09:33N 37°58' E 023°37'4 3.8
2015-Jan-28 08:33N 37°60' E 023°33'1 0.6
2015-Jan-28 07:33N 38°00' E 023°34'3 3.0
2015-Jan-28 06:33N 37°57' E 023°34'3 2.7
2015-Jan-28 05:33N 37°55' E 023°36'2 2.0
2015-Jan-28 04:33N 37°57' E 023°35'1 1.2
2015-Jan-28 03:33N 37°58' E 023°37'0 0.0
2015-Jan-28 02:33N 37°58' E 023°37'0 0.0
2015-Jan-28 01:33N 37°58' E 023°37'0 0.0
2015-Jan-28 00:33N 37°58' E 023°37'0 0.0
2015-Jan-27 23:33N 37°58' E 023°37'0 0.0
2015-Jan-27 22:33N 37°58' E 023°37'0 0.0
2015-Jan-27 21:33N 37°58' E 023°37'0 0.0
2015-Jan-27 20:33N 37°58' E 023°37'0 0.0
2015-Jan-27 19:33N 37°58' E 023°37'0 0.0
2015-Jan-27 18:33N 37°58' E 023°37'0 0.0
2015-Jan-27 17:33N 37°58' E 023°37'0 0.0
2015-Jan-27 16:33N 37°58' E 023°37'1 1.0
2015-Jan-27 15:33N 37°57' E 023°36'1 1.5
2015-Jan-27 14:33N 37°57' E 023°34'1 0.8
2015-Jan-27 13:33N 37°57' E 023°35'1 1.4
2015-Jan-27 12:33N 37°58' E 023°37'0 0.0
2015-Jan-27 11:33N 37°58' E 023°37'5 5.2
2015-Jan-27 10:33N 38°01' E 023°32'2 1.5
2015-Jan-27 09:33N 38°02' E 023°30'0 0.3
2015-Jan-27 08:33N 38°02' E 023°31'4 3.8
2015-Jan-27 07:33N 37°59' E 023°32'3 2.7
2015-Jan-27 06:33N 37°57' E 023°35'1 0.8
2015-Jan-27 05:33N 37°57' E 023°36'1 0.9
2015-Jan-27 04:33N 37°57' E 023°36'1 0.6
2015-Jan-27 03:33N 37°58' E 023°37'0 0.0
2015-Jan-27 02:33N 37°58' E 023°37'0 0.0
2015-Jan-27 01:33N 37°58' E 023°37'0 0.0
2015-Jan-27 00:33N 37°58' E 023°37'0 0.0
2015-Jan-26 23:33N 37°58' E 023°37'0 0.0
2015-Jan-26 22:33N 37°58' E 023°37'0 0.0
2015-Jan-26 21:33N 37°58' E 023°37'0 0.0
2015-Jan-26 20:33N 37°58' E 023°37'0 0.0
2015-Jan-26 19:33N 37°58' E 023°37'0 0.0
2015-Jan-26 18:33N 37°58' E 023°37'0 0.0
2015-Jan-26 17:33N 37°58' E 023°37'0 0.0
2015-Jan-26 16:33N 37°58' E 023°37'1 0.7
2015-Jan-26 15:33N 37°57' E 023°36'6 6.2
2015-Jan-26 14:33N 38°02' E 023°32'0 0.0
2015-Jan-26 13:33N 38°02' E 023°32'3 3.0
2015-Jan-26 12:32N 38°02' E 023°36'3 2.6
2015-Jan-26 11:33N 38°02' E 023°32'1 0.6
2015-Jan-26 10:33N 38°02' E 023°33'1 0.5
2015-Jan-26 09:33N 38°02' E 023°32'0 0.0
2015-Jan-26 08:33N 38°02' E 023°32'0 0.0
2015-Jan-26 07:33N 38°02' E 023°32'2 1.9
2015-Jan-26 06:34N 38°01' E 023°30'6 5.7
2015-Jan-26 05:33N 37°57' E 023°35'2 1.6
2015-Jan-26 04:33N 37°58' E 023°37'0 0.0
2015-Jan-26 03:33N 37°58' E 023°37'0 0.0
2015-Jan-26 02:33N 37°58' E 023°37'0 0.0
2015-Jan-26 01:33N 37°58' E 023°37'0 0.0
2015-Jan-26 00:33N 37°58' E 023°37'0 0.0
2015-Jan-25 23:33N 37°58' E 023°37'0 0.0
2015-Jan-25 22:33N 37°58' E 023°37'0 0.0
2015-Jan-25 21:33N 37°58' E 023°37'0 0.0
2015-Jan-25 20:33N 37°58' E 023°37'0 0.0
2015-Jan-25 19:33N 37°58' E 023°37'0 0.0
2015-Jan-25 18:27N 37°58' E 023°37'0 0.0
2015-Jan-25 17:33N 37°58' E 023°37'0 0.0
2015-Jan-25 16:32N 37°58' E 023°37'0 0.0
2015-Jan-25 15:33N 37°58' E 023°37'1 1.2
2015-Jan-25 14:33N 37°57' E 023°35'0 0.4
2015-Jan-25 13:33N 37°57' E 023°36'0 0.3
2015-Jan-25 12:30N 37°57' E 023°36'0 0.1
2015-Jan-25 11:33N 37°57' E 023°36'1 0.6
2015-Jan-25 10:07N 37°58' E 023°37'7 1.2
2015-Jan-25 04:23N 38°02' E 023°31'0 0.0
2015-Jan-25 03:32N 38°02' E 023°31'2 1.0
2015-Jan-25 02:04N 38°01' E 023°32'1 2.5
2015-Jan-25 01:33N 37°60' E 023°33'4 3.9
2015-Jan-25 00:33N 37°58' E 023°37'0 0.0
2015-Jan-24 23:33N 37°58' E 023°37'0 0.0
2015-Jan-24 22:33N 37°58' E 023°37'0 0.0
2015-Jan-24 21:33N 37°58' E 023°37'0 0.0
2015-Jan-24 20:33N 37°58' E 023°37'1 1.3
2015-Jan-24 19:33N 37°56' E 023°36'1 0.8
2015-Jan-24 18:33N 37°57' E 023°36'0 0.0
2015-Jan-24 17:33N 37°57' E 023°36'1 0.8
2015-Jan-24 16:33N 37°58' E 023°37'1 1.2
2015-Jan-24 15:33N 37°57' E 023°35'1 1.2
2015-Jan-24 14:33N 37°58' E 023°37'0 0.0
2015-Jan-24 13:33N 37°58' E 023°37'0 0.0
2015-Jan-24 12:33N 37°58' E 023°37'0 0.0
2015-Jan-24 11:33N 37°58' E 023°37'1 0.8
2015-Jan-24 10:33N 37°57' E 023°36'1 0.7
2015-Jan-24 09:33N 37°58' E 023°36'0 0.3
2015-Jan-24 08:33N 37°58' E 023°37'0 0.0
2015-Jan-24 07:33N 37°58' E 023°37'0 0.0
2015-Jan-24 06:33N 37°58' E 023°37'0 0.1
2015-Jan-24 05:33N 37°58' E 023°37'0 0.1
2015-Jan-24 04:33N 37°58' E 023°37'0 0.0
2015-Jan-24 03:33N 37°58' E 023°37'0 0.0
2015-Jan-24 02:33N 37°58' E 023°37'0 0.0
2015-Jan-24 01:33N 37°58' E 023°37'0 0.0
2015-Jan-24 00:33N 37°58' E 023°37'0 0.0
2015-Jan-23 23:33N 37°58' E 023°37'0 0.0
2015-Jan-23 22:33N 37°58' E 023°37'0 0.0
2015-Jan-23 21:33N 37°58' E 023°37'0 0.0
2015-Jan-23 20:33N 37°58' E 023°37'0 0.0
2015-Jan-23 19:33N 37°58' E 023°37'1 0.7
2015-Jan-23 18:33N 37°57' E 023°36'1 0.7
2015-Jan-23 17:33N 37°58' E 023°37'0 0.0
2015-Jan-23 16:33N 37°58' E 023°37'0 0.0
2015-Jan-23 15:33N 37°58' E 023°37'0 0.0
2015-Jan-23 14:33N 37°58' E 023°37'1 0.9
2015-Jan-23 13:33N 37°57' E 023°36'1 0.8
2015-Jan-23 12:33N 37°58' E 023°37'0 0.0
2015-Jan-23 11:33N 37°58' E 023°37'1 0.6
2015-Jan-23 10:33N 37°57' E 023°36'0 0.0
2015-Jan-23 09:33N 37°57' E 023°36'1 1.0
2015-Jan-23 08:33N 37°57' E 023°35'1 1.3
2015-Jan-23 07:33N 37°58' E 023°37'0 0.0
2015-Jan-23 06:33N 37°58' E 023°37'1 1.1
2015-Jan-23 05:33N 37°57' E 023°36'1 1.1
2015-Jan-23 04:33N 37°58' E 023°37'0 0.0
2015-Jan-23 03:33N 37°58' E 023°37'0 0.0
2015-Jan-23 02:33N 37°58' E 023°37'0 0.0
2015-Jan-23 01:33N 37°58' E 023°37'0 0.0
2015-Jan-23 00:33N 37°58' E 023°37'0 0.0
2015-Jan-22 23:33N 37°58' E 023°37'0 0.0
2015-Jan-22 22:33N 37°58' E 023°37'0 0.0
2015-Jan-22 21:33N 37°58' E 023°37'0 0.0
2015-Jan-22 20:33N 37°58' E 023°37'0 0.0
2015-Jan-22 19:33N 37°58' E 023°37'0 0.0
2015-Jan-22 18:33N 37°58' E 023°37'0 0.0
2015-Jan-22 17:33N 37°58' E 023°37'0 0.0
2015-Jan-22 16:33N 37°58' E 023°37'1 0.7
2015-Jan-22 15:33N 37°57' E 023°36'1 0.7
2015-Jan-22 14:33N 37°58' E 023°37'1 1.2
2015-Jan-22 13:34N 37°57' E 023°35'1 0.8
2015-Jan-22 12:33N 37°58' E 023°36'0 0.5
2015-Jan-22 11:33N 37°58' E 023°37'0 0.0
2015-Jan-22 10:33N 37°58' E 023°37'3 2.5
2015-Jan-22 09:34N 37°57' E 023°34'5 4.8
2015-Jan-22 08:33N 38°02' E 023°32'1 1.3
2015-Jan-22 07:33N 38°02' E 023°30'2 2.1
2015-Jan-22 06:33N 38°01' E 023°32'3 2.5
2015-Jan-22 05:33N 38°01' E 023°35'4 4.1
2015-Jan-22 04:33N 37°57' E 023°36'0 0.4
2015-Jan-22 03:34N 37°58' E 023°37'0 0.0
2015-Jan-22 02:33N 37°58' E 023°37'0 0.0
2015-Jan-22 01:33N 37°58' E 023°37'0 0.0
2015-Jan-22 00:33N 37°58' E 023°37'0 0.0
2015-Jan-21 23:33N 37°58' E 023°37'0 0.0
2015-Jan-21 22:50N 37°58' E 023°37'0 0.0
2015-Jan-21 22:46N 37°58' E 023°37'0 0.0
2015-Jan-21 22:33N 37°58' E 023°37'0 0.0
2015-Jan-21 21:33N 37°58' E 023°37'0 0.0
2015-Jan-21 20:33N 37°58' E 023°37'0 0.0
2015-Jan-21 19:33N 37°58' E 023°37'0 0.0
2015-Jan-21 18:33N 37°58' E 023°37'0 0.0
2015-Jan-21 17:33N 37°58' E 023°37'0 0.0
2015-Jan-21 16:33N 37°58' E 023°37'0 0.0
2015-Jan-21 15:33N 37°58' E 023°37'0 0.0
2015-Jan-21 14:33N 37°58' E 023°37'0 0.0
2015-Jan-21 13:33N 37°58' E 023°37'0 0.0
2015-Jan-21 12:33N 37°58' E 023°37'1 1.2
2015-Jan-21 11:33N 37°57' E 023°35'1 1.2
2015-Jan-21 10:33N 37°58' E 023°37'1 0.6
2015-Jan-21 09:33N 37°57' E 023°36'1 1.2
2015-Jan-21 08:33N 37°57' E 023°35'8 7.9
2015-Jan-21 07:33N 37°59' E 023°25'9 4.5
2015-Jan-21 05:34N 37°57' E 023°36'1 0.6
2015-Jan-21 04:34N 37°58' E 023°37'  
Track history (hours):
 
Tides and Currents Weather Stations Pressure Air Temp Water Temp Dewpoint Dewpoint Depression Visibility Wind Speed Wind Dir Waves Ship Positions

Megalochari Vii

Last reported at 2015-Jan-31 04:33 UTC. Time now 2015-Jan-31 05:32 UTC.
Position N 37°58' E 023°37'.

Length 27 m; draft 4.8 m.

Type: Tug. MMSI: 240391000.

Date/timePositionNaut miles runAvg speedWind from/ knotsBaromVisibWave heightAir tempDewpointWater temp
2015-Jan-31 04:33N 37°58' E 023°37'0 0.0
2015-Jan-31 03:33N 37°58' E 023°37'0 0.0
2015-Jan-31 02:33N 37°58' E 023°37'0 0.0
2015-Jan-31 01:33N 37°58' E 023°37'0 0.0
2015-Jan-31 00:33N 37°58' E 023°37'0 0.0
2015-Jan-30 23:33N 37°58' E 023°37'0 0.0
2015-Jan-30 22:33N 37°58' E 023°37'0 0.0
2015-Jan-30 21:33N 37°58' E 023°37'0 0.0
2015-Jan-30 20:33N 37°58' E 023°37'0 0.0
2015-Jan-30 19:33N 37°58' E 023°37'0 0.0
2015-Jan-30 18:33N 37°58' E 023°37'0 0.0
2015-Jan-30 17:33N 37°58' E 023°37'0 0.0
2015-Jan-30 16:33N 37°58' E 023°37'0 0.0
2015-Jan-30 15:33N 37°58' E 023°37'0 0.0
2015-Jan-30 14:33N 37°58' E 023°37'0 0.0
2015-Jan-30 13:33N 37°58' E 023°37'0 0.0
2015-Jan-30 12:33N 37°58' E 023°37'1 0.7
2015-Jan-30 11:33N 37°57' E 023°36'1 0.7
2015-Jan-30 10:33N 37°58' E 023°37'0 0.0
2015-Jan-30 09:33N 37°58' E 023°37'2 2.5
2015-Jan-30 08:34N 37°57' E 023°34'2 1.8
2015-Jan-30 07:33N 37°57' E 023°36'0 0.3
2015-Jan-30 06:33N 37°57' E 023°36'1 1.1
2015-Jan-30 05:33N 37°58' E 023°37'0 0.0
2015-Jan-30 04:33N 37°58' E 023°37'0 0.0
2015-Jan-30 03:33N 37°58' E 023°37'0 0.0
2015-Jan-30 02:33N 37°58' E 023°37'0 0.0
2015-Jan-30 01:33N 37°58' E 023°37'0 0.0
2015-Jan-30 00:33N 37°58' E 023°37'0 0.0
2015-Jan-29 23:33N 37°58' E 023°37'0 0.0
2015-Jan-29 22:33N 37°58' E 023°37'0 0.0
2015-Jan-29 21:33N 37°58' E 023°37'0 0.0
2015-Jan-29 20:33N 37°58' E 023°37'0 0.0
2015-Jan-29 19:33N 37°58' E 023°37'0 0.0
2015-Jan-29 18:33N 37°58' E 023°37'0 0.0
2015-Jan-29 17:33N 37°58' E 023°37'0 0.0
2015-Jan-29 16:33N 37°58' E 023°37'0 0.0
2015-Jan-29 15:33N 37°58' E 023°37'0 0.0
2015-Jan-29 14:33N 37°58' E 023°37'0 0.0
2015-Jan-29 13:33N 37°58' E 023°37'0 0.0
2015-Jan-29 12:33N 37°58' E 023°37'0 0.0
2015-Jan-29 11:33N 37°58' E 023°37'0 0.0
2015-Jan-29 10:33N 37°58' E 023°37'0 0.0
2015-Jan-29 09:33N 37°58' E 023°37'0 0.0
2015-Jan-29 08:33N 37°58' E 023°37'0 0.0
2015-Jan-29 07:25N 37°58' E 023°37'0 0.0
2015-Jan-29 06:33N 37°58' E 023°37'1 1.0
2015-Jan-29 05:33N 37°57' E 023°36'1 1.0
2015-Jan-29 04:33N 37°58' E 023°37'0 0.0
2015-Jan-29 03:33N 37°58' E 023°37'0 0.0
2015-Jan-29 02:33N 37°58' E 023°37'0 0.0
2015-Jan-29 01:33N 37°58' E 023°37'0 0.0
2015-Jan-29 00:33N 37°58' E 023°37'0 0.0
2015-Jan-28 23:33N 37°58' E 023°37'0 0.0
2015-Jan-28 22:33N 37°58' E 023°37'0 0.0
2015-Jan-28 21:33N 37°58' E 023°37'0 0.0
2015-Jan-28 20:33N 37°58' E 023°37'0 0.0
2015-Jan-28 19:33N 37°58' E 023°37'0 0.0
2015-Jan-28 18:33N 37°58' E 023°37'0 0.0
2015-Jan-28 17:33N 37°58' E 023°37'0 0.0
2015-Jan-28 16:33N 37°58' E 023°37'0 0.0
2015-Jan-28 15:33N 37°58' E 023°37'0 0.0
2015-Jan-28 14:33N 37°58' E 023°37'0 0.0
2015-Jan-28 13:33N 37°58' E 023°37'0 0.0
2015-Jan-28 12:33N 37°58' E 023°37'0 0.0
2015-Jan-28 11:33N 37°58' E 023°37'0 0.0
2015-Jan-28 10:33N 37°58' E 023°37'0 0.0
2015-Jan-28 09:33N 37°58' E 023°37'4 3.8
2015-Jan-28 08:33N 37°60' E 023°33'1 0.6
2015-Jan-28 07:33N 38°00' E 023°34'3 3.0
2015-Jan-28 06:33N 37°57' E 023°34'3 2.7
2015-Jan-28 05:33N 37°55' E 023°36'2 2.0
2015-Jan-28 04:33N 37°57' E 023°35'1 1.2
2015-Jan-28 03:33N 37°58' E 023°37'0 0.0
2015-Jan-28 02:33N 37°58' E 023°37'0 0.0
2015-Jan-28 01:33N 37°58' E 023°37'0 0.0
2015-Jan-28 00:33N 37°58' E 023°37'0 0.0
2015-Jan-27 23:33N 37°58' E 023°37'0 0.0
2015-Jan-27 22:33N 37°58' E 023°37'0 0.0
2015-Jan-27 21:33N 37°58' E 023°37'0 0.0
2015-Jan-27 20:33N 37°58' E 023°37'0 0.0
2015-Jan-27 19:33N 37°58' E 023°37'0 0.0
2015-Jan-27 18:33N 37°58' E 023°37'0 0.0
2015-Jan-27 17:33N 37°58' E 023°37'0 0.0
2015-Jan-27 16:33N 37°58' E 023°37'1 1.0
2015-Jan-27 15:33N 37°57' E 023°36'1 1.5
2015-Jan-27 14:33N 37°57' E 023°34'1 0.8
2015-Jan-27 13:33N 37°57' E 023°35'1 1.4
2015-Jan-27 12:33N 37°58' E 023°37'0 0.0
2015-Jan-27 11:33N 37°58' E 023°37'5 5.2
2015-Jan-27 10:33N 38°01' E 023°32'2 1.5
2015-Jan-27 09:33N 38°02' E 023°30'0 0.3
2015-Jan-27 08:33N 38°02' E 023°31'4 3.8
2015-Jan-27 07:33N 37°59' E 023°32'3 2.7
2015-Jan-27 06:33N 37°57' E 023°35'1 0.8
2015-Jan-27 05:33N 37°57' E 023°36'1 0.9
2015-Jan-27 04:33N 37°57' E 023°36'1 0.6
2015-Jan-27 03:33N 37°58' E 023°37'0 0.0
2015-Jan-27 02:33N 37°58' E 023°37'0 0.0
2015-Jan-27 01:33N 37°58' E 023°37'0 0.0
2015-Jan-27 00:33N 37°58' E 023°37'0 0.0
2015-Jan-26 23:33N 37°58' E 023°37'0 0.0
2015-Jan-26 22:33N 37°58' E 023°37'0 0.0
2015-Jan-26 21:33N 37°58' E 023°37'0 0.0
2015-Jan-26 20:33N 37°58' E 023°37'0 0.0
2015-Jan-26 19:33N 37°58' E 023°37'0 0.0
2015-Jan-26 18:33N 37°58' E 023°37'0 0.0
2015-Jan-26 17:33N 37°58' E 023°37'0 0.0
2015-Jan-26 16:33N 37°58' E 023°37'1 0.7
2015-Jan-26 15:33N 37°57' E 023°36'6 6.2
2015-Jan-26 14:33N 38°02' E 023°32'0 0.0
2015-Jan-26 13:33N 38°02' E 023°32'3 3.0
2015-Jan-26 12:32N 38°02' E 023°36'3 2.6
2015-Jan-26 11:33N 38°02' E 023°32'1 0.6
2015-Jan-26 10:33N 38°02' E 023°33'1 0.5
2015-Jan-26 09:33N 38°02' E 023°32'0 0.0
2015-Jan-26 08:33N 38°02' E 023°32'0 0.0
2015-Jan-26 07:33N 38°02' E 023°32'2 1.9
2015-Jan-26 06:34N 38°01' E 023°30'6 5.7
2015-Jan-26 05:33N 37°57' E 023°35'2 1.6
2015-Jan-26 04:33N 37°58' E 023°37'0 0.0
2015-Jan-26 03:33N 37°58' E 023°37'0 0.0
2015-Jan-26 02:33N 37°58' E 023°37'0 0.0
2015-Jan-26 01:33N 37°58' E 023°37'0 0.0
2015-Jan-26 00:33N 37°58' E 023°37'0 0.0
2015-Jan-25 23:33N 37°58' E 023°37'0 0.0
2015-Jan-25 22:33N 37°58' E 023°37'0 0.0
2015-Jan-25 21:33N 37°58' E 023°37'0 0.0
2015-Jan-25 20:33N 37°58' E 023°37'0 0.0
2015-Jan-25 19:33N 37°58' E 023°37'0 0.0
2015-Jan-25 18:27N 37°58' E 023°37'0 0.0
2015-Jan-25 17:33N 37°58' E 023°37'0 0.0
2015-Jan-25 16:32N 37°58' E 023°37'0 0.0
2015-Jan-25 15:33N 37°58' E 023°37'1 1.2
2015-Jan-25 14:33N 37°57' E 023°35'0 0.4
2015-Jan-25 13:33N 37°57' E 023°36'0 0.3
2015-Jan-25 12:30N 37°57' E 023°36'0 0.1
2015-Jan-25 11:33N 37°57' E 023°36'1 0.6
2015-Jan-25 10:07N 37°58' E 023°37'7 1.2
2015-Jan-25 04:23N 38°02' E 023°31'0 0.0
2015-Jan-25 03:32N 38°02' E 023°31'2 1.0
2015-Jan-25 02:04N 38°01' E 023°32'1 2.5
2015-Jan-25 01:33N 37°60' E 023°33'4 3.9
2015-Jan-25 00:33N 37°58' E 023°37'0 0.0
2015-Jan-24 23:33N 37°58' E 023°37'0 0.0
2015-Jan-24 22:33N 37°58' E 023°37'0 0.0
2015-Jan-24 21:33N 37°58' E 023°37'0 0.0
2015-Jan-24 20:33N 37°58' E 023°37'1 1.3
2015-Jan-24 19:33N 37°56' E 023°36'1 0.8
2015-Jan-24 18:33N 37°57' E 023°36'0 0.0
2015-Jan-24 17:33N 37°57' E 023°36'1 0.8
2015-Jan-24 16:33N 37°58' E 023°37'1 1.2
2015-Jan-24 15:33N 37°57' E 023°35'1 1.2
2015-Jan-24 14:33N 37°58' E 023°37'0 0.0
2015-Jan-24 13:33N 37°58' E 023°37'0 0.0
2015-Jan-24 12:33N 37°58' E 023°37'0 0.0
2015-Jan-24 11:33N 37°58' E 023°37'1 0.8
2015-Jan-24 10:33N 37°57' E 023°36'1 0.7
2015-Jan-24 09:33N 37°58' E 023°36'0 0.3
2015-Jan-24 08:33N 37°58' E 023°37'0 0.0
2015-Jan-24 07:33N 37°58' E 023°37'0 0.0
2015-Jan-24 06:33N 37°58' E 023°37'0 0.1
2015-Jan-24 05:33N 37°58' E 023°37'0 0.1
2015-Jan-24 04:33N 37°58' E 023°37'0 0.0
2015-Jan-24 03:33N 37°58' E 023°37'0 0.0
2015-Jan-24 02:33N 37°58' E 023°37'0 0.0
2015-Jan-24 01:33N 37°58' E 023°37'0 0.0
2015-Jan-24 00:33N 37°58' E 023°37'0 0.0
2015-Jan-23 23:33N 37°58' E 023°37'0 0.0
2015-Jan-23 22:33N 37°58' E 023°37'0 0.0
2015-Jan-23 21:33N 37°58' E 023°37'0 0.0
2015-Jan-23 20:33N 37°58' E 023°37'0 0.0
2015-Jan-23 19:33N 37°58' E 023°37'1 0.7
2015-Jan-23 18:33N 37°57' E 023°36'1 0.7
2015-Jan-23 17:33N 37°58' E 023°37'0 0.0
2015-Jan-23 16:33N 37°58' E 023°37'0 0.0
2015-Jan-23 15:33N 37°58' E 023°37'0 0.0
2015-Jan-23 14:33N 37°58' E 023°37'1 0.9
2015-Jan-23 13:33N 37°57' E 023°36'1 0.8
2015-Jan-23 12:33N 37°58' E 023°37'0 0.0
2015-Jan-23 11:33N 37°58' E 023°37'1 0.6
2015-Jan-23 10:33N 37°57' E 023°36'0 0.0
2015-Jan-23 09:33N 37°57' E 023°36'1 1.0
2015-Jan-23 08:33N 37°57' E 023°35'1 1.3
2015-Jan-23 07:33N 37°58' E 023°37'0 0.0
2015-Jan-23 06:33N 37°58' E 023°37'1 1.1
2015-Jan-23 05:33N 37°57' E 023°36'1 1.1
2015-Jan-23 04:33N 37°58' E 023°37'0 0.0
2015-Jan-23 03:33N 37°58' E 023°37'0 0.0
2015-Jan-23 02:33N 37°58' E 023°37'0 0.0
2015-Jan-23 01:33N 37°58' E 023°37'0 0.0
2015-Jan-23 00:33N 37°58' E 023°37'0 0.0
2015-Jan-22 23:33N 37°58' E 023°37'0 0.0
2015-Jan-22 22:33N 37°58' E 023°37'0 0.0
2015-Jan-22 21:33N 37°58' E 023°37'0 0.0
2015-Jan-22 20:33N 37°58' E 023°37'0 0.0
2015-Jan-22 19:33N 37°58' E 023°37'0 0.0
2015-Jan-22 18:33N 37°58' E 023°37'0 0.0
2015-Jan-22 17:33N 37°58' E 023°37'0 0.0
2015-Jan-22 16:33N 37°58' E 023°37'1 0.7
2015-Jan-22 15:33N 37°57' E 023°36'1 0.7
2015-Jan-22 14:33N 37°58' E 023°37'1 1.2
2015-Jan-22 13:34N 37°57' E 023°35'1 0.8
2015-Jan-22 12:33N 37°58' E 023°36'0 0.5
2015-Jan-22 11:33N 37°58' E 023°37'0 0.0
2015-Jan-22 10:33N 37°58' E 023°37'3 2.5
2015-Jan-22 09:34N 37°57' E 023°34'5 4.8
2015-Jan-22 08:33N 38°02' E 023°32'1 1.3
2015-Jan-22 07:33N 38°02' E 023°30'2 2.1
2015-Jan-22 06:33N 38°01' E 023°32'3 2.5
2015-Jan-22 05:33N 38°01' E 023°35'4 4.1
2015-Jan-22 04:33N 37°57' E 023°36'0 0.4
2015-Jan-22 03:34N 37°58' E 023°37'0 0.0
2015-Jan-22 02:33N 37°58' E 023°37'0 0.0
2015-Jan-22 01:33N 37°58' E 023°37'0 0.0
2015-Jan-22 00:33N 37°58' E 023°37'0 0.0
2015-Jan-21 23:33N 37°58' E 023°37'0 0.0
2015-Jan-21 22:50N 37°58' E 023°37'0 0.0
2015-Jan-21 22:46N 37°58' E 023°37'0 0.0
2015-Jan-21 22:33N 37°58' E 023°37'0 0.0
2015-Jan-21 21:33N 37°58' E 023°37'0 0.0
2015-Jan-21 20:33N 37°58' E 023°37'0 0.0
2015-Jan-21 19:33N 37°58' E 023°37'0 0.0
2015-Jan-21 18:33N 37°58' E 023°37'0 0.0
2015-Jan-21 17:33N 37°58' E 023°37'0 0.0
2015-Jan-21 16:33N 37°58' E 023°37'0 0.0
2015-Jan-21 15:33N 37°58' E 023°37'0 0.0
2015-Jan-21 14:33N 37°58' E 023°37'0 0.0
2015-Jan-21 13:33N 37°58' E 023°37'0 0.0
2015-Jan-21 12:33N 37°58' E 023°37'1 1.2
2015-Jan-21 11:33N 37°57' E 023°35'1 1.2
2015-Jan-21 10:33N 37°58' E 023°37'1 0.6
2015-Jan-21 09:33N 37°57' E 023°36'1 1.2
2015-Jan-21 08:33N 37°57' E 023°35'8 7.9
2015-Jan-21 07:33N 37°59' E 023°25'9 4.5
2015-Jan-21 05:34N 37°57' E 023°36'1 0.6
2015-Jan-21 04:34N 37°58' E 023°37'  

Dump ship's entire track history